Time;durP1;ratioP1;P1;durP2;ratioP2;P2;SDS_P1;SDS_P2;PMS_P1;PMS_P2;Temp;Humidity;BMP_temperature;BMP_pressure;BME280_temperature;BME280_humidity;BME280_pressure;Samples;Min_cycle;Max_cycle;Signal;HPM_P1;HPM_P2
2022/11/09 05:00:42;;;;;;;14.70;7.50;;;11.10;99.90;;;;;;5922765;23;20522;-70
2022/11/09 05:03:09;;;;;;;9.40;6.60;;;11.10;99.90;;;;;;4988770;28;20465;-70
2022/11/09 05:05:37;;;;;;;8.63;6.90;;;11.10;99.90;;;;;;4988357;28;20463;-75
2022/11/09 05:08:04;;;;;;;7.60;6.60;;;11.10;99.90;;;;;;4988290;28;20514;-74
2022/11/09 05:10:32;;;;;;;8.90;7.00;;;11.10;99.90;;;;;;4988085;28;20475;-70
2022/11/09 05:12:59;;;;;;;12.07;7.20;;;11.10;99.90;;;;;;4988657;28;20455;-78
2022/11/09 05:15:26;;;;;;;8.50;7.70;;;11.10;99.90;;;;;;4988266;28;20467;-73
2022/11/09 05:17:54;;;;;;;10.40;7.53;;;11.10;99.90;;;;;;4989514;28;20455;-70
2022/11/09 05:20:21;;;;;;;12.23;7.27;;;11.10;99.90;;;;;;4988238;28;20737;-72
2022/11/09 05:25:32;;;;;;;10.10;7.40;;;11.20;99.90;;;;;;4988648;28;21003;-73
2022/11/09 05:27:59;;;;;;;12.63;8.67;;;11.20;99.90;;;;;;4989220;28;20492;-70
2022/11/09 05:30:26;;;;;;;8.43;7.43;;;11.20;99.90;;;;;;4988139;28;20467;-76
2022/11/09 05:32:54;;;;;;;9.07;7.03;;;11.20;99.90;;;;;;4988542;28;20797;-72
2022/11/09 05:35:21;;;;;;;10.73;7.87;;;11.30;99.90;;;;;;4988179;28;20970;-71
2022/11/09 05:37:48;;;;;;;12.17;8.60;;;11.30;99.90;;;;;;4989242;28;20459;-64
2022/11/09 05:40:16;;;;;;;11.77;9.33;;;11.30;99.90;;;;;;4988361;28;20463;-65
2022/11/09 05:42:43;;;;;;;10.03;9.03;;;11.30;99.90;;;;;;4988101;28;20455;-65
2022/11/09 05:45:12;;;;;;;10.37;9.20;;;11.20;99.90;;;;;;4987469;28;20949;-65
2022/11/09 05:47:39;;;;;;;10.70;8.97;;;11.30;99.90;;;;;;4988378;28;20492;-65
2022/11/09 05:50:09;;;;;;;10.77;8.50;;;11.30;99.90;;;;;;4987728;28;20464;-74
2022/11/09 05:52:36;;;;;;;9.90;8.90;;;11.20;99.90;;;;;;4990600;28;20472;-75
2022/11/09 05:55:04;;;;;;;10.37;9.10;;;11.20;99.90;;;;;;4989302;28;20974;-74
2022/11/09 05:57:30;;;;;;;9.30;8.20;;;11.30;99.90;;;;;;4990389;28;20463;-73
2022/11/09 05:59:57;;;;;;;10.10;8.00;;;11.20;99.90;;;;;;4990282;28;20452;-80
2022/11/09 06:02:24;;;;;;;11.97;8.40;;;11.30;99.90;;;;;;4989949;28;20531;-73
2022/11/09 06:04:51;;;;;;;13.90;9.27;;;11.30;99.90;;;;;;4989495;28;20456;-74
2022/11/09 06:07:19;;;;;;;11.13;8.70;;;11.30;99.90;;;;;;4989933;28;20496;-77
2022/11/09 06:09:46;;;;;;;12.13;8.43;;;11.30;99.90;;;;;;4990044;28;20466;-75
2022/11/09 06:12:13;;;;;;;10.60;7.90;;;11.20;99.90;;;;;;4990099;28;20486;-74
2022/11/09 06:14:39;;;;;;;15.87;7.87;;;11.30;99.90;;;;;;4989272;28;20459;-74
2022/11/09 06:17:06;;;;;;;10.03;6.90;;;11.30;99.90;;;;;;4990203;28;20459;-76
2022/11/09 06:19:33;;;;;;;9.70;7.73;;;11.40;99.90;;;;;;4989892;28;20451;-73
2022/11/09 06:22:00;;;;;;;9.23;6.87;;;11.40;99.90;;;;;;4989598;28;20475;-73
2022/11/09 06:24:28;;;;;;;9.20;6.60;;;11.30;99.90;;;;;;4988921;28;20461;-81
2022/11/09 06:26:54;;;;;;;12.80;7.80;;;11.40;99.90;;;;;;4989701;28;20456;-75
2022/11/09 06:29:21;;;;;;;10.17;7.37;;;11.40;99.90;;;;;;4989537;28;20459;-74
2022/11/09 06:31:50;;;;;;;9.67;7.10;;;11.40;99.90;;;;;;4989410;28;20483;-73
2022/11/09 06:34:17;;;;;;;10.27;8.27;;;11.40;99.90;;;;;;4988866;28;20459;-83
2022/11/09 06:36:44;;;;;;;10.23;6.77;;;11.50;99.90;;;;;;4989298;28;20452;-74
2022/11/09 06:39:10;;;;;;;9.93;8.20;;;11.50;99.90;;;;;;4989416;28;20460;-73
2022/11/09 06:41:39;;;;;;;12.80;8.20;;;11.50;99.90;;;;;;4989015;28;20894;-74
2022/11/09 06:44:06;;;;;;;8.70;7.13;;;11.50;99.90;;;;;;4988545;28;20463;-74
2022/11/09 06:46:33;;;;;;;10.53;8.30;;;11.50;99.90;;;;;;4988981;28;20459;-78
2022/11/09 06:49:01;;;;;;;11.40;8.40;;;11.50;99.90;;;;;;4988960;28;20498;-74
2022/11/09 06:51:27;;;;;;;12.63;8.10;;;11.50;99.90;;;;;;4989105;28;20484;-75
2022/11/09 06:53:54;;;;;;;10.13;7.20;;;11.50;99.90;;;;;;4989232;28;20515;-74
2022/11/09 06:56:21;;;;;;;11.23;7.83;;;11.50;99.90;;;;;;4988807;28;20459;-76
2022/11/09 06:58:49;;;;;;;10.50;8.20;;;11.50;99.90;;;;;;4988998;28;20466;-75
2022/11/09 07:01:19;;;;;;;9.20;7.53;;;11.50;99.90;;;;;;4988488;28;20500;-74
2022/11/09 07:03:45;;;;;;;9.47;7.77;;;11.50;99.90;;;;;;4988377;28;20464;-76
2022/11/09 07:06:13;;;;;;;8.60;7.20;;;11.50;99.90;;;;;;5003205;28;20458;-78
2022/11/09 07:08:40;;;;;;;11.90;8.27;;;11.50;99.90;;;;;;5008788;28;20908;-78
2022/11/09 07:11:09;;;;;;;11.97;7.70;;;11.50;99.90;;;;;;5008318;28;20990;-75
2022/11/09 07:13:36;;;;;;;10.50;8.60;;;11.60;99.90;;;;;;5008310;28;20865;-74
2022/11/09 07:16:04;;;;;;;10.60;8.23;;;11.60;99.90;;;;;;5007431;28;21010;-82
2022/11/09 07:18:31;;;;;;;11.23;8.80;;;11.60;99.90;;;;;;5008418;28;20462;-81
2022/11/09 07:20:58;;;;;;;11.40;8.20;;;11.60;99.90;;;;;;5008545;28;20470;-74
2022/11/09 07:23:25;;;;;;;10.70;7.97;;;11.70;99.90;;;;;;5008447;28;20450;-76
2022/11/09 07:25:52;;;;;;;14.23;9.50;;;11.70;99.90;;;;;;5007632;28;20454;-83
2022/11/09 07:28:19;;;;;;;14.47;8.57;;;11.70;99.90;;;;;;5008147;28;20486;-77
2022/11/09 07:30:49;;;;;;;10.33;7.40;;;11.70;99.90;;;;;;5008184;28;20471;-74
2022/11/09 07:33:18;;;;;;;11.30;8.80;;;11.70;99.90;;;;;;5008015;28;20440;-74
2022/11/09 07:35:45;;;;;;;8.67;7.23;;;11.60;99.90;;;;;;5007268;28;20452;-76
2022/11/09 07:38:14;;;;;;;9.23;6.77;;;11.50;99.90;;;;;;5008279;28;20458;-74
2022/11/09 07:40:41;;;;;;;7.80;7.00;;;11.40;99.90;;;;;;5008025;28;20590;-77
2022/11/09 07:43:08;;;;;;;9.50;7.57;;;11.40;99.90;;;;;;5008332;28;20468;-74
2022/11/09 07:45:35;;;;;;;9.07;7.50;;;11.50;99.90;;;;;;5007658;28;20458;-78
2022/11/09 07:48:04;;;;;;;9.60;8.03;;;11.50;99.90;;;;;;5007992;28;20486;-74
2022/11/09 07:50:34;;;;;;;12.83;7.50;;;11.60;99.90;;;;;;5007684;28;20844;-78
2022/11/09 07:53:02;;;;;;;11.90;7.70;;;11.60;99.90;;;;;;5007961;28;20462;-74
2022/11/09 07:55:30;;;;;;;11.17;8.50;;;11.70;99.90;;;;;;5007098;28;20951;-75
2022/11/09 07:57:57;;;;;;;11.50;7.87;;;11.70;99.90;;;;;;5008161;28;20465;-82
2022/11/09 08:00:24;;;;;;;8.80;7.27;;;11.80;99.90;;;;;;5007858;28;20802;-76
2022/11/09 08:02:51;;;;;;;14.00;7.60;;;11.80;99.90;;;;;;5008170;28;20455;-74
2022/11/09 08:05:18;;;;;;;11.63;7.87;;;11.90;99.90;;;;;;5007444;28;20461;-74
2022/11/09 08:07:46;;;;;;;9.50;7.70;;;11.90;99.90;;;;;;5008149;28;20497;-74
2022/11/09 08:10:13;;;;;;;11.33;7.90;;;11.90;99.90;;;;;;5007811;28;20829;-74
2022/11/09 08:12:40;;;;;;;9.70;7.90;;;12.00;99.90;;;;;;5008217;28;20466;-75
2022/11/09 08:15:08;;;;;;;9.17;7.07;;;12.00;99.90;;;;;;5011015;28;20455;-74
2022/11/09 08:17:35;;;;;;;13.33;8.27;;;12.00;99.90;;;;;;5011434;28;20458;-83
2022/11/09 08:20:01;;;;;;;10.87;7.93;;;12.10;99.90;;;;;;5011540;28;20502;-74
2022/11/09 08:22:28;;;;;;;10.40;7.93;;;12.10;99.90;;;;;;5011510;28;20470;-78
2022/11/09 08:24:56;;;;;;;11.03;8.30;;;12.10;99.90;;;;;;5010639;28;21220;-75
2022/11/09 08:27:23;;;;;;;10.93;8.87;;;12.10;99.90;;;;;;5011872;28;20454;-75
2022/11/09 08:29:50;;;;;;;12.00;9.30;;;12.20;99.90;;;;;;5011470;28;21008;-74
2022/11/09 08:32:17;;;;;;;12.07;9.00;;;12.20;99.90;;;;;;5011066;28;20478;-77
2022/11/09 08:34:47;;;;;;;11.17;8.90;;;12.20;99.90;;;;;;5010371;28;20946;-77
2022/11/09 08:37:14;;;;;;;13.80;9.93;;;12.20;99.90;;;;;;5011475;28;20516;-74
2022/11/09 08:39:41;;;;;;;14.70;9.40;;;12.30;99.90;;;;;;5011195;28;20446;-75
2022/11/09 08:42:09;;;;;;;13.00;10.13;;;12.30;99.90;;;;;;5011433;28;20481;-74
2022/11/09 08:44:36;;;;;;;12.30;9.87;;;12.30;99.90;;;;;;5010357;28;21043;-74
2022/11/09 08:47:03;;;;;;;11.70;9.40;;;12.30;99.90;;;;;;5011170;28;20455;-84
2022/11/09 08:49:31;;;;;;;10.00;8.77;;;12.30;99.90;;;;;;5011179;28;20497;-74
2022/11/09 08:51:58;;;;;;;12.80;8.90;;;12.40;99.90;;;;;;5011158;28;20506;-74
2022/11/09 08:54:24;;;;;;;10.50;8.00;;;12.40;99.90;;;;;;5010249;28;20466;-74
2022/11/09 08:56:54;;;;;;;12.20;8.40;;;12.40;99.90;;;;;;5011172;28;20461;-78
2022/11/09 08:59:23;;;;;;;8.27;7.37;;;12.40;99.90;;;;;;5011247;28;20462;-81
2022/11/09 09:01:49;;;;;;;11.53;7.67;;;12.50;99.90;;;;;;5010864;28;20497;-77
2022/11/09 09:04:16;;;;;;;8.67;7.77;;;12.50;99.90;;;;;;5010615;28;20681;-74
2022/11/09 09:06:43;;;;;;;11.70;8.20;;;12.50;99.90;;;;;;5010806;28;20469;-74
2022/11/09 09:09:10;;;;;;;8.63;7.07;;;12.50;99.90;;;;;;5010867;28;20490;-80
2022/11/09 09:11:37;;;;;;;9.80;7.40;;;12.50;99.90;;;;;;5010962;28;20537;-73
2022/11/09 09:14:03;;;;;;;8.07;7.23;;;12.60;99.90;;;;;;5010221;28;20451;-74
2022/11/09 09:16:32;;;;;;;7.43;6.57;;;12.60;99.90;;;;;;5010683;28;20458;-77
2022/11/09 09:18:59;;;;;;;9.00;6.70;;;12.70;99.90;;;;;;5010637;28;20466;-79
2022/11/09 09:21:26;;;;;;;6.63;5.67;;;12.70;99.90;;;;;;5010203;28;20998;-74
2022/11/09 09:23:53;;;;;;;8.23;5.77;;;12.70;99.90;;;;;;5010115;28;20462;-75
2022/11/09 09:26:19;;;;;;;7.87;5.93;;;12.80;99.90;;;;;;4998034;28;20459;-73
2022/11/09 09:28:46;;;;;;;6.33;4.87;;;12.80;99.90;;;;;;4991006;28;20483;-76
2022/11/09 09:31:13;;;;;;;5.30;4.80;;;12.80;99.90;;;;;;4990519;28;20484;-77
2022/11/09 09:33:41;;;;;;;6.07;4.43;;;12.90;99.90;;;;;;4990691;28;20484;-77
2022/11/09 09:36:09;;;;;;;6.60;5.60;;;12.90;99.90;;;;;;4989861;28;20465;-77
2022/11/09 09:38:36;;;;;;;9.47;4.77;;;12.90;99.90;;;;;;4990493;28;20940;-76
2022/11/09 09:41:06;;;;;;;7.73;4.60;;;13.00;99.90;;;;;;4990192;28;20484;-77
2022/11/09 09:43:37;;;;;;;4.83;4.37;;;13.00;99.90;;;;;;4990748;28;20471;-77
2022/11/09 09:46:07;;;;;;;4.23;3.83;;;13.10;99.90;;;;;;4989848;28;20467;-76
2022/11/09 09:48:39;;;;;;;8.73;4.60;;;13.20;99.90;;;;;;4990689;28;20498;-76
2022/11/09 09:51:16;;;;;;;9.17;4.57;;;13.20;99.90;;;;;;4989985;28;20487;-78
2022/11/09 09:53:47;;;;;;;5.27;3.60;;;13.20;99.90;;;;;;4990319;28;20432;-75
2022/11/09 09:56:18;;;;;;;5.57;3.80;;;13.30;99.90;;;;;;4989354;28;20968;-79
2022/11/09 09:58:52;;;;;;;4.23;3.37;;;13.30;99.90;;;;;;4989150;28;20440;-76
2022/11/09 10:01:23;;;;;;;9.90;6.23;;;13.30;99.90;;;;;;4987688;28;20493;-73
2022/11/09 10:03:51;;;;;;;10.73;5.93;;;13.40;99.90;;;;;;4988167;28;20448;-69
2022/11/09 10:06:39;;;;;;;13.50;7.23;;;13.40;99.90;;;;;;4987243;28;20459;-66
2022/11/09 10:09:19;;;;;;;14.07;8.13;;;13.40;99.90;;;;;;4987643;28;20980;-65
2022/11/09 10:11:55;;;;;;;4.70;3.27;;;13.50;99.90;;;;;;4987856;28;20878;-68
2022/11/09 10:15:10;;;;;;;3.10;2.47;;;13.50;99.90;;;;;;4988263;28;20514;-76
2022/11/09 10:17:43;;;;;;;3.30;2.40;;;13.60;99.90;;;;;;4925585;29;20478;-76
2022/11/09 10:20:41;;;;;;;4.50;2.80;;;13.70;99.90;;;;;;4928166;29;20474;-77
2022/11/09 10:23:35;;;;;;;4.70;2.47;;;13.80;99.90;;;;;;4976242;28;20460;-76
2022/11/09 10:26:04;;;;;;;3.33;2.47;;;13.90;99.90;;;;;;4988001;28;20807;-75
2022/11/09 10:28:34;;;;;;;2.93;1.90;;;13.90;99.90;;;;;;4988923;28;20506;-76
2022/11/09 10:31:02;;;;;;;2.53;2.10;;;14.00;99.90;;;;;;4988425;28;20548;-76
2022/11/09 10:33:29;;;;;;;2.93;2.20;;;14.20;99.90;;;;;;4988246;28;20474;-75
2022/11/09 10:36:07;;;;;;;4.43;2.97;;;14.30;99.90;;;;;;4987834;28;20829;-75
2022/11/09 10:38:40;;;;;;;3.57;2.60;;;14.50;99.90;;;;;;4988581;28;20440;-76
2022/11/09 10:41:17;;;;;;;5.40;2.10;;;14.60;99.90;;;;;;4988247;28;20828;-76
2022/11/09 10:43:43;;;;;;;2.67;2.17;;;14.70;99.90;;;;;;4988016;28;20968;-75
2022/11/09 10:46:10;;;;;;;3.40;2.10;;;14.70;99.90;;;;;;4986929;28;20988;-75
2022/11/09 10:48:40;;;;;;;5.93;1.90;;;14.80;99.90;;;;;;4987679;28;21243;-75
2022/11/09 10:51:35;;;;;;;5.90;2.13;;;14.80;99.90;;;;;;4988126;28;20507;-75
2022/11/09 10:54:20;;;;;;;3.30;2.13;;;14.90;99.90;;;;;;4987910;28;20824;-76
2022/11/09 10:56:49;;;;;;;3.57;1.93;;;14.90;99.90;;;;;;4988955;28;20465;-76
2022/11/09 10:59:44;;;;;;;2.40;1.80;;;15.00;99.90;;;;;;4988516;28;20462;-76
2022/11/09 11:02:43;;;;;;;2.20;1.70;;;15.00;99.90;;;;;;4988266;28;20487;-75
2022/11/09 11:05:31;;;;;;;2.13;1.93;;;15.20;99.90;;;;;;4987503;28;20470;-75
2022/11/09 11:07:58;;;;;;;2.30;1.67;;;15.30;99.90;;;;;;4987864;28;20463;-75
2022/11/09 11:10:26;;;;;;;2.30;1.80;;;15.30;99.90;;;;;;4987709;28;20503;-76
2022/11/09 11:13:19;;;;;;;3.17;1.90;;;15.30;99.90;;;;;;4987903;28;20455;-76
2022/11/09 11:15:46;;;;;;;4.60;1.80;;;15.40;99.90;;;;;;4987195;28;20464;-76
2022/11/09 11:18:20;;;;;;;2.60;2.40;;;15.40;99.90;;;;;;4987658;28;20471;-76
2022/11/09 11:20:48;;;;;;;2.90;2.27;;;15.50;99.90;;;;;;4987702;28;20574;-75
2022/11/09 11:23:17;;;;;;;2.40;2.20;;;15.40;99.90;;;;;;4987345;28;20463;-76
2022/11/09 11:26:02;;;;;;;3.03;1.90;;;15.50;99.90;;;;;;4986727;28;20471;-76
2022/11/09 11:28:35;;;;;;;1.80;1.70;;;15.60;99.90;;;;;;4987687;28;20451;-76
2022/11/09 11:31:02;;;;;;;1.50;1.40;;;15.60;99.90;;;;;;4987163;28;20488;-76
2022/11/09 11:33:33;;;;;;;2.30;1.90;;;15.60;99.90;;;;;;4987446;28;20463;-76
2022/11/09 11:36:09;;;;;;;2.20;1.40;;;15.70;99.90;;;;;;4986760;28;20459;-76
2022/11/09 11:38:39;;;;;;;3.00;1.90;;;15.80;99.90;;;;;;4987699;28;20912;-75
2022/11/09 11:41:30;;;;;;;3.43;1.80;;;15.80;99.90;;;;;;4987711;28;20476;-76
2022/11/09 11:44:03;;;;;;;3.63;1.90;;;15.80;99.90;;;;;;4987275;28;20455;-77
2022/11/09 11:46:41;;;;;;;3.23;1.53;;;15.90;99.90;;;;;;4987410;28;20448;-75
2022/11/09 11:49:35;;;;;;;2.10;1.73;;;15.90;99.90;;;;;;4992800;28;20491;-75
2022/11/09 11:52:09;;;;;;;1.63;1.53;;;16.00;99.90;;;;;;4993917;28;20486;-76
2022/11/09 11:54:46;;;;;;;1.80;1.47;;;16.00;99.90;;;;;;4993573;28;20447;-75
2022/11/09 11:57:23;;;;;;;2.10;1.60;;;16.10;99.90;;;;;;4994011;28;20455;-75
2022/11/09 12:00:02;;;;;;;2.20;1.40;;;16.10;99.90;;;;;;4994109;28;20451;-76
2022/11/09 12:03:03;;;;;;;2.33;1.70;;;16.10;99.90;;;;;;4993640;28;20577;-76
2022/11/09 12:05:47;;;;;;;3.43;1.67;;;16.10;99.90;;;;;;4993047;28;20470;-75
2022/11/09 12:08:21;;;;;;;2.10;1.80;;;16.20;99.90;;;;;;4993528;28;20868;-75
2022/11/09 12:10:56;;;;;;;4.20;1.90;;;16.20;99.90;;;;;;4993309;28;20498;-75
2022/11/09 12:13:39;;;;;;;2.80;1.90;;;16.10;99.90;;;;;;4993241;28;20454;-75
2022/11/09 12:16:11;;;;;;;3.67;1.90;;;16.00;99.90;;;;;;4992750;28;20463;-75
2022/11/09 12:18:47;;;;;;;2.83;1.93;;;16.00;99.90;;;;;;4993662;28;20538;-75
2022/11/09 12:21:17;;;;;;;2.77;1.93;;;16.10;99.90;;;;;;4993687;28;20471;-75
2022/11/09 12:24:01;;;;;;;2.27;1.90;;;16.20;99.90;;;;;;4993684;28;20470;-75
2022/11/09 12:26:42;;;;;;;2.43;2.00;;;16.20;99.90;;;;;;4993626;28;20444;-76
2022/11/09 12:29:20;;;;;;;2.83;2.37;;;16.20;99.90;;;;;;4993581;28;20480;-75
2022/11/09 12:31:59;;;;;;;2.70;2.00;;;16.20;99.90;;;;;;4993150;28;20483;-75
2022/11/09 12:34:30;;;;;;;3.80;1.90;;;16.10;99.90;;;;;;4992317;28;20466;-75
2022/11/09 12:37:01;;;;;;;3.33;2.07;;;16.20;99.90;;;;;;4993014;28;20439;-75
2022/11/09 12:39:35;;;;;;;2.13;1.60;;;16.20;99.90;;;;;;4992640;28;20455;-75
2022/11/09 12:42:06;;;;;;;2.30;2.00;;;16.20;99.90;;;;;;4993282;28;20471;-75
2022/11/09 12:44:39;;;;;;;2.40;2.00;;;16.20;99.90;;;;;;4992647;28;20447;-76
2022/11/09 12:47:14;;;;;;;3.23;1.90;;;16.30;99.90;;;;;;4993172;28;20443;-75
2022/11/09 12:49:44;;;;;;;3.27;2.60;;;16.20;99.90;;;;;;4993407;28;20483;-75
2022/11/09 12:52:13;;;;;;;3.07;2.00;;;16.20;99.90;;;;;;4993052;28;21267;-76
2022/11/09 12:54:42;;;;;;;2.60;2.10;;;16.20;99.90;;;;;;4992446;28;20845;-76
2022/11/09 12:57:13;;;;;;;3.07;2.30;;;16.10;99.90;;;;;;4992944;28;20821;-75
2022/11/09 12:59:48;;;;;;;2.27;1.87;;;16.20;99.90;;;;;;4990568;28;20924;-75
2022/11/09 13:02:24;;;;;;;2.13;1.87;;;16.20;99.90;;;;;;4990252;28;20491;-75
2022/11/09 13:04:59;;;;;;;2.40;2.13;;;16.20;99.90;;;;;;4989408;28;20459;-75
2022/11/09 13:07:48;;;;;;;3.53;2.57;;;16.30;99.90;;;;;;4990269;28;20451;-75
2022/11/09 13:10:29;;;;;;;4.50;2.67;;;16.20;99.90;;;;;;4989906;28;20475;-75
2022/11/09 13:13:04;;;;;;;4.20;2.20;;;16.20;99.90;;;;;;4990187;28;20992;-75
2022/11/09 13:15:33;;;;;;;4.13;2.87;;;16.10;99.90;;;;;;4989555;28;20439;-75
2022/11/09 13:18:03;;;;;;;5.60;2.63;;;16.20;99.90;;;;;;4990240;28;20455;-74
2022/11/09 13:20:42;;;;;;;2.97;2.40;;;16.30;99.90;;;;;;4989467;28;20463;-75
2022/11/09 13:23:27;;;;;;;3.07;2.60;;;16.40;99.90;;;;;;4989463;28;20456;-75
2022/11/09 13:25:54;;;;;;;10.07;3.37;;;16.40;99.90;;;;;;4988801;28;20527;-75
2022/11/09 13:28:57;;;;;;;4.50;2.87;;;16.40;99.90;;;;;;4989429;28;20459;-75
2022/11/09 13:31:57;;;;;;;4.43;2.70;;;16.40;99.90;;;;;;4989589;28;20475;-74
2022/11/09 13:34:43;;;;;;;5.10;2.53;;;16.40;99.90;;;;;;4988904;28;20485;-75
2022/11/09 13:37:36;;;;;;;3.63;2.47;;;16.40;99.90;;;;;;4989606;28;20467;-75
2022/11/09 13:40:40;;;;;;;3.07;2.60;;;16.40;99.90;;;;;;4989317;28;20814;-76
2022/11/09 13:43:18;;;;;;;3.43;2.60;;;16.40;99.90;;;;;;4989087;28;20881;-75
2022/11/09 13:45:47;;;;;;;3.67;2.83;;;16.40;99.90;;;;;;4988843;28;20565;-75
2022/11/09 13:48:33;;;;;;;4.10;3.20;;;16.40;99.90;;;;;;4989272;28;20455;-76
2022/11/09 13:51:02;;;;;;;2.70;2.43;;;16.30;99.90;;;;;;4987250;28;21023;-74
2022/11/09 13:53:31;;;;;;;4.60;2.73;;;16.30;99.90;;;;;;4987290;28;20459;-75
2022/11/09 13:56:15;;;;;;;4.23;3.43;;;16.30;99.90;;;;;;4986802;28;20459;-75
2022/11/09 13:58:42;;;;;;;5.73;3.67;;;16.20;99.90;;;;;;4987655;28;20456;-75
2022/11/09 14:01:25;;;;;;;6.13;3.83;;;16.20;99.90;;;;;;4986998;28;20490;-75
2022/11/09 14:03:52;;;;;;;5.30;3.20;;;16.20;99.90;;;;;;4986980;28;20459;-75
2022/11/09 14:06:19;;;;;;;5.70;2.97;;;16.20;99.90;;;;;;4986781;28;20864;-75
2022/11/09 14:08:46;;;;;;;7.03;3.83;;;16.20;99.90;;;;;;4987372;28;20460;-75
2022/11/09 14:11:36;;;;;;;8.83;5.40;;;16.10;99.90;;;;;;4986752;28;20518;-75
2022/11/09 14:14:17;;;;;;;4.10;3.37;;;16.10;99.90;;;;;;4986464;28;20483;-75
2022/11/09 14:16:52;;;;;;;4.00;3.20;;;16.00;99.90;;;;;;4986866;28;21292;-75
2022/11/09 14:19:28;;;;;;;3.47;3.00;;;16.00;99.90;;;;;;4986679;28;20455;-75
2022/11/09 14:21:55;;;;;;;5.57;3.70;;;16.00;99.90;;;;;;4986999;28;20822;-75
2022/11/09 14:24:24;;;;;;;8.00;4.10;;;16.00;99.90;;;;;;4986263;28;20459;-75
2022/11/09 14:27:11;;;;;;;4.33;3.30;;;16.00;99.90;;;;;;4986386;28;20460;-75
2022/11/09 14:29:48;;;;;;;5.03;3.97;;;16.10;99.90;;;;;;4986739;28;20480;-74
2022/11/09 14:32:28;;;;;;;6.23;4.90;;;16.00;99.90;;;;;;4986421;28;20475;-75
2022/11/09 14:35:10;;;;;;;5.57;4.60;;;16.00;99.90;;;;;;4985204;28;21166;-75
2022/11/09 14:37:42;;;;;;;9.50;5.50;;;16.00;99.90;;;;;;4988122;28;20447;-80
2022/11/09 14:40:17;;;;;;;6.73;5.00;;;16.00;99.90;;;;;;4987520;28;20456;-75
2022/11/09 14:42:49;;;;;;;6.87;5.23;;;16.00;99.90;;;;;;4987522;28;20473;-74
2022/11/09 14:45:16;;;;;;;12.23;7.27;;;15.90;99.90;;;;;;4987209;28;20850;-76
2022/11/09 14:47:45;;;;;;;9.73;7.40;;;16.00;99.90;;;;;;4987276;28;20462;-75
2022/11/09 14:50:17;;;;;;;7.60;5.53;;;15.90;99.90;;;;;;4987512;28;20510;-75
2022/11/09 14:52:45;;;;;;;9.37;5.17;;;15.90;99.90;;;;;;4988455;28;20456;-77
2022/11/09 14:55:14;;;;;;;5.47;4.97;;;15.90;99.90;;;;;;4989461;28;20456;-78
2022/11/09 14:57:42;;;;;;;7.90;4.60;;;15.90;99.90;;;;;;4988494;28;20460;-75
2022/11/09 15:00:28;;;;;;;7.40;3.70;;;15.90;99.90;;;;;;4987585;28;20452;-75
2022/11/09 15:02:55;;;;;;;5.90;3.60;;;15.80;99.90;;;;;;4987989;28;20432;-75
2022/11/09 15:05:37;;;;;;;5.93;3.93;;;15.80;99.90;;;;;;4987178;28;20458;-75
2022/11/09 15:08:05;;;;;;;6.93;4.60;;;15.80;99.90;;;;;;4987951;28;20510;-76
2022/11/09 15:10:32;;;;;;;8.33;4.17;;;15.80;99.90;;;;;;4987258;28;20507;-76
2022/11/09 15:13:02;;;;;;;9.87;4.63;;;15.70;99.90;;;;;;4987692;28;20463;-75
2022/11/09 15:15:33;;;;;;;7.47;4.70;;;15.80;99.90;;;;;;4986860;28;21014;-75
2022/11/09 15:18:00;;;;;;;9.67;4.67;;;15.70;99.90;;;;;;4987853;28;20810;-75
2022/11/09 15:20:31;;;;;;;6.93;4.60;;;15.70;99.90;;;;;;4987470;28;20522;-75
2022/11/09 15:23:00;;;;;;;9.03;5.60;;;15.70;99.90;;;;;;4986962;28;20448;-76
2022/11/09 15:25:30;;;;;;;15.70;8.00;;;15.70;99.90;;;;;;4986824;28;20459;-75
2022/11/09 15:28:01;;;;;;;12.30;7.47;;;15.60;99.90;;;;;;4987362;28;20436;-75
2022/11/09 15:30:32;;;;;;;13.20;9.13;;;15.60;99.90;;;;;;4987252;28;20593;-75
2022/11/09 15:32:59;;;;;;;11.00;9.40;;;15.60;99.90;;;;;;4987451;28;20447;-75
2022/11/09 15:35:26;;;;;;;20.00;12.40;;;15.50;99.90;;;;;;4986166;28;20460;-74
2022/11/09 15:37:54;;;;;;;15.17;11.93;;;15.40;99.90;;;;;;4986597;28;20975;-75
2022/11/09 15:40:23;;;;;;;17.13;11.97;;;15.40;99.90;;;;;;4987555;28;20456;-75
2022/11/09 15:42:51;;;;;;;15.57;10.63;;;15.30;99.90;;;;;;4986825;28;20452;-75
2022/11/09 15:45:20;;;;;;;30.00;21.97;;;15.40;99.90;;;;;;4986087;28;20470;-75
2022/11/09 15:47:53;;;;;;;9.30;7.63;;;15.40;99.90;;;;;;4987404;28;20447;-75
2022/11/09 15:50:22;;;;;;;10.20;7.60;;;15.30;99.90;;;;;;4986211;28;20492;-76
2022/11/09 15:52:49;;;;;;;8.00;6.40;;;15.30;99.90;;;;;;4987087;28;20468;-75
2022/11/09 15:55:17;;;;;;;9.57;7.20;;;15.30;99.90;;;;;;4986046;28;20467;-75
2022/11/09 15:57:44;;;;;;;9.00;7.00;;;15.30;99.90;;;;;;4987196;28;20468;-75
2022/11/09 16:00:14;;;;;;;8.40;6.00;;;15.30;99.90;;;;;;4986603;28;20470;-74
2022/11/09 16:02:41;;;;;;;9.10;6.57;;;15.30;99.90;;;;;;4986562;28;20487;-75
2022/11/09 16:05:09;;;;;;;8.63;5.70;;;15.20;99.90;;;;;;4986120;28;20452;-75
2022/11/09 16:07:36;;;;;;;8.30;6.70;;;15.20;99.90;;;;;;4986839;28;20466;-74
2022/11/09 16:10:03;;;;;;;12.43;6.13;;;15.20;99.90;;;;;;4986936;28;20495;-74
2022/11/09 16:12:30;;;;;;;11.33;7.50;;;15.20;99.90;;;;;;4986839;28;20487;-74
2022/11/09 16:14:57;;;;;;;8.47;6.00;;;15.20;99.90;;;;;;4986086;28;20474;-75
2022/11/09 16:17:24;;;;;;;6.70;5.50;;;15.20;99.90;;;;;;4986545;28;20451;-74
2022/11/09 16:19:51;;;;;;;9.00;6.33;;;15.10;99.90;;;;;;4986336;28;20463;-76
2022/11/09 16:22:19;;;;;;;9.60;7.40;;;15.10;99.90;;;;;;4986085;28;20490;-74
2022/11/09 16:24:47;;;;;;;9.17;6.47;;;15.00;99.90;;;;;;4984850;28;20451;-73
2022/11/09 16:27:14;;;;;;;13.60;9.77;;;15.00;99.90;;;;;;4985767;28;20955;-73
2022/11/09 16:29:40;;;;;;;11.03;9.63;;;15.00;99.90;;;;;;4984984;28;20456;-74
2022/11/09 16:32:07;;;;;;;10.80;8.40;;;15.00;99.90;;;;;;4984167;28;20479;-74
2022/11/09 16:34:34;;;;;;;11.80;9.67;;;15.00;99.90;;;;;;4986440;28;20460;-74
2022/11/09 16:37:01;;;;;;;17.97;10.97;;;15.10;99.90;;;;;;4989484;28;20459;-73
2022/11/09 16:39:32;;;;;;;12.97;11.57;;;15.00;99.90;;;;;;4989191;28;20451;-74
2022/11/09 16:42:01;;;;;;;12.23;8.93;;;15.00;99.90;;;;;;4989442;28;20468;-74
2022/11/09 16:44:33;;;;;;;14.53;10.90;;;15.00;99.90;;;;;;4988302;28;20456;-74
2022/11/09 16:47:03;;;;;;;11.60;9.00;;;15.00;99.90;;;;;;4989527;28;20497;-73
2022/11/09 16:49:31;;;;;;;9.90;8.00;;;14.90;99.90;;;;;;4989431;28;20455;-73
2022/11/09 16:51:58;;;;;;;10.80;7.60;;;14.90;99.90;;;;;;4989302;28;20499;-74
2022/11/09 16:54:25;;;;;;;10.20;6.87;;;14.90;99.90;;;;;;4988576;28;20467;-74
2022/11/09 16:56:53;;;;;;;12.10;6.00;;;14.90;99.90;;;;;;4988930;28;20467;-74
2022/11/09 16:59:21;;;;;;;7.57;6.20;;;14.90;99.90;;;;;;4989340;28;20460;-74
2022/11/09 17:01:52;;;;;;;8.40;6.50;;;14.80;99.90;;;;;;4988972;28;20488;-73
2022/11/09 17:04:18;;;;;;;8.20;5.67;;;14.80;99.90;;;;;;4988575;28;20459;-74
2022/11/09 17:06:45;;;;;;;11.10;7.57;;;14.80;99.90;;;;;;4995392;28;20943;-74
2022/11/09 17:09:12;;;;;;;9.27;7.03;;;14.70;99.90;;;;;;5008375;28;20459;-74
2022/11/09 17:11:39;;;;;;;12.67;7.30;;;14.70;99.90;;;;;;5008124;28;20990;-74
2022/11/09 17:14:08;;;;;;;7.83;7.10;;;14.70;99.90;;;;;;5008317;28;20466;-74
2022/11/09 17:16:35;;;;;;;10.67;7.37;;;14.70;99.90;;;;;;5008349;28;20560;-73
2022/11/09 17:19:02;;;;;;;9.90;7.40;;;14.70;99.90;;;;;;5008210;28;20466;-74
2022/11/09 17:21:29;;;;;;;9.43;8.43;;;14.70;99.90;;;;;;5008495;28;20482;-74
2022/11/09 17:23:57;;;;;;;13.87;7.90;;;14.70;99.90;;;;;;5007864;28;20622;-74
2022/11/09 17:26:25;;;;;;;13.37;8.80;;;14.70;99.90;;;;;;5008181;28;20462;-73
2022/11/09 17:28:52;;;;;;;9.70;8.03;;;14.60;99.90;;;;;;5008133;28;20463;-74
2022/11/09 17:31:23;;;;;;;13.30;8.60;;;14.60;99.90;;;;;;5008112;28;20498;-74
2022/11/09 17:33:49;;;;;;;12.50;10.33;;;14.60;99.90;;;;;;5008285;28;20447;-74
2022/11/09 17:36:18;;;;;;;14.80;10.90;;;14.50;99.90;;;;;;5007468;28;20455;-74
2022/11/09 17:38:45;;;;;;;13.60;11.40;;;14.50;99.90;;;;;;5008175;28;20470;-74
2022/11/09 17:41:13;;;;;;;13.60;10.90;;;14.50;99.90;;;;;;5007920;28;20474;-74
2022/11/09 17:43:41;;;;;;;19.50;11.17;;;14.50;99.90;;;;;;5007806;28;20455;-74
2022/11/09 17:46:10;;;;;;;13.50;10.57;;;14.50;99.90;;;;;;5006458;28;21384;-74
2022/11/09 17:48:40;;;;;;;13.20;11.37;;;14.50;99.90;;;;;;5007628;28;20463;-74
2022/11/09 17:51:08;;;;;;;12.10;10.30;;;14.50;99.90;;;;;;5007249;28;20498;-74
2022/11/09 17:53:35;;;;;;;16.33;11.30;;;14.40;99.90;;;;;;5007980;28;20458;-74
2022/11/09 17:56:02;;;;;;;18.90;13.37;;;14.50;99.90;;;;;;5007347;28;20455;-73
2022/11/09 17:58:29;;;;;;;23.90;18.43;;;14.40;99.90;;;;;;5007562;28;20570;-74
2022/11/09 18:00:56;;;;;;;24.80;18.93;;;14.40;99.90;;;;;;5007147;28;20502;-74
2022/11/09 18:03:24;;;;;;;25.40;19.40;;;14.40;99.90;;;;;;5007386;28;20839;-73
2022/11/09 18:05:52;;;;;;;25.47;18.27;;;14.50;99.90;;;;;;5006670;28;20501;-73